Main page
METAR-TAF:

METAR-TAF

Airports :

Le Touquet – Côte d'Opale Airport

Le Touquet, France

latitude: 50-30-53N, longitude: 001-37-39E, elevation: 6 m

Current weather observation

The report was made 39 minutes ago, at 21:30 UTC
Wind 4 kt from the Southeast
Temperature 0°C
Humidity 100%
Pressure 996 hPa
Visibility: 2700 m
light rain, mist

METAR: LFAT 222130Z AUTO 13004KT 2700 -RA BR OVC001/// ///TCU 00/M00 Q0996

Time: 23:09 (22:09 UTC)

Forecast

The report was made 8 hours and 9 minutes ago, at 14:00 UTC
Forecast valid from 22 at 15 UTC to 22 at 24 UTC
Wind 6 kt from the West
Visibility 10 km or more
Scattered clouds at a height of 3000 ft
Temporary
from 22 at 18 UTC to 22 at 24 UTC
Visibility: 3000 m
Broken clouds at a height of 600 ft
Broken clouds at a height of 1300 ft, Towering cumulus.
rain showers, snow

TAF: LFAT 221400Z 2215/2224 26006KT 9999 SCT030 TEMPO 2218/2224 3000 SHRASN BKN006 BKN013TCU

Weather observations and forecasts of more than 4000 airports (METAR and TAF reports).

The available stations are represented by yellow and red dots on the map.

Hover mouse over dot to see the name of the station.

Then click to see weather observations and forecasts.

To change the map : click on the green buttons with a black cross to zoom in, on the green button with a dash to zoom out, or on the green arrows for adjacent maps.


METAR-TAF: